Skip Navigation Links Skip Navigation Links

Current Weather

Port Auth-Dwntn-Manhattan/Wall St, New York

For information only: do not use for flight planning or navigation.
Latest weather
Observation time Thursday, November 14, 2019 7:56 PM EST
Local time Thursday, November 14, 2019 8:10 PM EST
Flight conditions Conditions unknown
Winds
Wind direction West-Southwest (240°)
Wind speed 13 mph
Sky condition
Ceiling unlimited
Sky clear
Temperature 45°F
Dewpoint 31°F
Altimeter 30.32 in.Hg
Derived measurements
Relative humidity 58%
Wind chill 39°F
Density altitude -1298 ft.
Sea-level pressure 30.31 in.Hg
Remarks
Fully automated report.
Automated weather observing station with precipitation discriminator.
Present weather sensor not operating.
METAR KJRB 150056Z AUTO 24011KT CLR 07/M01 A3032 RMK AO2 SLP265 T00721006 PWINO

Settings

Location code

InnerDrive.Weather 4.0.6770.0 Release CLR 4.0.30319.42000
Copyright ©2018 Inner Drive Technology. All rights reserved. Portions Copyright ©1986-2018 David Braverman.

Find weather

Site navigation


Skip Navigation Links

Place info

Page info

PayPal - The safer, easier way to pay online!

Return home.

Copyright ©2019 Inner Drive Technology. Purveyors of fine, hand-crafted computer software. Page printed 2019-11-15T01:10:29 UTC.